createdAt,value
2022-11-07T00:01:49.980Z,4.65
2022-11-07T00:04:17.838Z,5.25
2022-11-07T00:06:45.129Z,5.93
2022-11-07T00:09:12.791Z,6.03
2022-11-07T00:11:40.209Z,5.35
2022-11-07T00:14:07.636Z,7.55
2022-11-07T00:16:34.926Z,5.15
2022-11-07T00:19:02.343Z,5.20
2022-11-07T00:21:29.769Z,4.93
2022-11-07T00:23:57.056Z,6.45
2022-11-07T00:26:24.500Z,5.80
2022-11-07T00:28:51.900Z,5.93
2022-11-07T00:31:20.005Z,4.80
2022-11-07T00:33:47.600Z,6.40
2022-11-07T00:36:26.276Z,5.75
2022-11-07T00:38:56.275Z,5.15
2022-11-07T00:41:24.212Z,6.63
2022-11-07T00:43:51.865Z,5.18
2022-11-07T00:46:19.857Z,6.40
2022-11-07T00:48:47.953Z,5.97
2022-11-07T00:51:23.727Z,6.72
2022-11-07T00:53:52.174Z,6.03
2022-11-07T00:56:23.884Z,4.78
2022-11-07T00:58:58.783Z,5.22
2022-11-07T01:01:30.543Z,5.38
2022-11-07T01:04:17.424Z,6.32
2022-11-07T01:06:49.262Z,7.25
2022-11-07T01:09:19.763Z,5.90
2022-11-07T01:11:48.068Z,5.13
2022-11-07T01:14:18.458Z,7.05
2022-11-07T01:16:45.882Z,5.07
2022-11-07T01:19:13.439Z,5.35
2022-11-07T01:21:41.868Z,6.20
2022-11-07T01:24:11.023Z,4.10
2022-11-07T01:26:40.295Z,4.80
2022-11-07T01:29:08.572Z,5.40
2022-11-07T01:31:37.789Z,4.32
2022-11-07T01:34:07.979Z,5.03
2022-11-07T01:36:35.540Z,5.82
2022-11-07T01:39:04.140Z,4.55
2022-11-07T01:41:34.565Z,5.90
2022-11-07T01:44:07.843Z,5.57
2022-11-07T01:46:37.930Z,4.53
2022-11-07T01:49:20.838Z,6.40
2022-11-07T01:52:10.108Z,4.03
2022-11-07T01:55:00.612Z,4.20
2022-11-07T01:57:34.636Z,5.35
2022-11-07T02:00:07.167Z,5.45
2022-11-07T02:02:36.585Z,5.35
2022-11-07T02:05:08.938Z,4.10
2022-11-07T02:07:38.375Z,5.35
2022-11-07T02:10:06.622Z,4.20
2022-11-07T02:12:34.569Z,5.63
2022-11-07T02:15:02.189Z,4.43
2022-11-07T02:17:29.795Z,5.65
2022-11-07T02:19:57.446Z,4.70
2022-11-07T02:22:27.841Z,6.50
2022-11-07T02:24:58.926Z,5.88
2022-11-07T02:27:31.592Z,5.78
2022-11-07T02:30:02.974Z,4.05
2022-11-07T02:32:30.682Z,6.07
2022-11-07T02:35:00.489Z,4.50
2022-11-07T02:37:32.809Z,5.03
2022-11-07T02:40:03.361Z,5.25
2022-11-07T02:42:43.661Z,4.70
2022-11-07T02:45:21.877Z,5.35
2022-11-07T02:47:49.755Z,5.72
2022-11-07T02:50:17.044Z,7.38
2022-11-07T02:52:44.518Z,5.35
2022-11-07T02:55:13.785Z,4.68
2022-11-07T02:57:41.701Z,4.25
2022-11-07T03:00:11.877Z,4.65
2022-11-07T03:02:39.571Z,4.45
2022-11-07T03:05:07.752Z,5.63
2022-11-07T03:07:35.039Z,4.75
2022-11-07T03:10:02.482Z,5.40
2022-11-07T03:12:29.784Z,4.72
2022-11-07T03:14:57.122Z,4.63
2022-11-07T03:17:24.435Z,4.30
2022-11-07T03:19:51.924Z,4.05
2022-11-07T03:22:19.360Z,5.45
2022-11-07T03:24:46.662Z,4.13
2022-11-07T03:27:15.645Z,4.38
2022-11-07T03:29:42.989Z,4.43
2022-11-07T03:32:10.653Z,4.38
2022-11-07T03:34:38.539Z,7.18
2022-11-07T03:37:09.602Z,4.10
2022-11-07T03:39:38.593Z,4.38
2022-11-07T03:42:06.013Z,5.20
2022-11-07T03:44:33.456Z,4.95
2022-11-07T03:47:00.760Z,5.13
2022-11-07T03:49:28.005Z,6.30
2022-11-07T03:51:56.304Z,6.43
2022-11-07T03:54:23.569Z,4.95
2022-11-07T03:56:50.984Z,4.95
2022-11-07T03:59:19.435Z,5.53
2022-11-07T04:01:46.954Z,4.55
2022-11-07T04:04:14.669Z,4.82
2022-11-07T04:06:41.974Z,4.85
2022-11-07T04:09:09.594Z,7.00
2022-11-07T04:11:55.391Z,4.93
2022-11-07T04:14:41.409Z,5.47
2022-11-07T04:17:21.911Z,6.20
2022-11-07T04:19:58.100Z,6.57
2022-11-07T04:22:26.387Z,7.03
2022-11-07T04:24:53.772Z,5.97
2022-11-07T04:27:39.881Z,5.20
2022-11-07T04:30:28.460Z,5.00
2022-11-07T04:32:58.326Z,5.50
2022-11-07T04:35:29.399Z,4.72
2022-11-07T04:37:56.948Z,4.93
2022-11-07T04:40:24.207Z,7.72
2022-11-07T04:42:52.041Z,7.35
2022-11-07T04:45:19.335Z,6.03
2022-11-07T04:47:47.430Z,7.07
2022-11-07T04:50:17.954Z,7.50
2022-11-07T04:52:46.717Z,8.32
2022-11-07T04:55:26.237Z,5.85
2022-11-07T04:57:53.757Z,6.35
2022-11-07T05:00:22.655Z,5.82
2022-11-07T05:02:50.889Z,5.97
2022-11-07T05:05:20.126Z,6.45
2022-11-07T05:07:48.604Z,7.55
2022-11-07T05:10:22.658Z,8.27
2022-11-07T05:12:50.072Z,6.57
2022-11-07T05:15:18.549Z,6.15
2022-11-07T05:17:46.545Z,6.75
2022-11-07T05:20:31.387Z,7.45
2022-11-07T05:23:19.053Z,6.93
2022-11-07T05:25:54.446Z,5.90
2022-11-07T05:28:35.289Z,5.50
2022-11-07T05:31:08.093Z,6.68
2022-11-07T05:33:35.924Z,5.30
2022-11-07T05:36:14.317Z,5.55
2022-11-07T05:38:45.245Z,4.65
2022-11-07T05:41:14.010Z,5.18
2022-11-07T05:43:41.439Z,5.82
2022-11-07T05:46:10.339Z,5.47
2022-11-07T05:48:38.378Z,5.13
2022-11-07T05:51:07.288Z,5.38
2022-11-07T05:53:35.027Z,5.80
2022-11-07T05:56:03.901Z,7.30
2022-11-07T05:58:31.409Z,5.80
2022-11-07T06:01:04.174Z,5.57
2022-11-07T06:03:33.573Z,6.35
2022-11-07T06:06:01.130Z,6.55
2022-11-07T06:08:28.425Z,4.40
2022-11-07T06:10:55.691Z,5.53
2022-11-07T06:13:23.272Z,6.38
2022-11-07T06:15:50.506Z,5.65
2022-11-07T06:18:20.389Z,5.40
2022-11-07T06:20:47.880Z,5.63
2022-11-07T06:23:15.751Z,7.25
2022-11-07T06:25:43.620Z,5.97
2022-11-07T06:28:14.981Z,5.97
2022-11-07T06:30:42.624Z,5.22
2022-11-07T06:33:16.499Z,5.38
2022-11-07T06:35:45.049Z,6.05
2022-11-07T06:38:14.225Z,6.70
2022-11-07T06:40:42.844Z,6.30
2022-11-07T06:43:18.891Z,6.03
2022-11-07T06:48:16.614Z,6.82
2022-11-07T06:50:44.061Z,5.75
2022-11-07T06:53:13.446Z,4.95
2022-11-07T06:55:45.993Z,6.20
2022-11-07T06:58:13.756Z,6.68
2022-11-07T07:00:42.235Z,7.85
2022-11-07T07:03:11.117Z,7.97
2022-11-07T07:05:38.844Z,5.55
2022-11-07T07:08:07.747Z,5.78
2022-11-07T07:10:39.434Z,5.80
2022-11-07T07:13:06.776Z,5.50
2022-11-07T07:15:49.420Z,6.25
2022-11-07T07:18:19.527Z,7.00
2022-11-07T07:20:48.572Z,4.88
2022-11-07T07:23:17.607Z,5.35
2022-11-07T07:25:45.643Z,6.57
2022-11-07T07:28:13.266Z,5.20
2022-11-07T07:30:40.833Z,6.75
2022-11-07T07:33:08.137Z,5.97
2022-11-07T07:35:35.621Z,7.97
2022-11-07T07:38:03.056Z,5.85
2022-11-07T07:40:30.462Z,7.95
2022-11-07T07:42:58.224Z,6.65
2022-11-07T07:45:26.045Z,7.15
2022-11-07T07:47:53.327Z,6.68
2022-11-07T07:50:21.637Z,6.25
2022-11-07T07:52:48.962Z,6.68
2022-11-07T07:55:16.382Z,7.00
2022-11-07T07:57:45.477Z,6.10
2022-11-07T08:00:13.502Z,6.57
2022-11-07T08:02:43.956Z,5.93
2022-11-07T08:05:13.958Z,6.15
2022-11-07T08:07:49.322Z,6.38
2022-11-07T08:10:40.900Z,6.38
2022-11-07T08:13:05.350Z,5.57
2022-11-07T08:15:33.229Z,6.47
2022-11-07T08:18:04.722Z,5.38
2022-11-07T08:20:32.600Z,6.70
2022-11-07T08:23:14.597Z,7.22
2022-11-07T08:25:52.116Z,6.05
2022-11-07T08:28:21.325Z,5.95
2022-11-07T08:31:10.144Z,4.55
2022-11-07T08:33:38.079Z,6.10
2022-11-07T08:36:07.180Z,5.28
2022-11-07T08:38:36.232Z,5.45
2022-11-07T08:41:06.468Z,5.57
2022-11-07T08:43:33.818Z,6.30
2022-11-07T08:46:01.223Z,4.90
2022-11-07T08:48:28.513Z,5.85
2022-11-07T08:50:57.684Z,7.45
2022-11-07T08:53:27.234Z,5.85
2022-11-07T08:56:01.898Z,5.88
2022-11-07T08:58:30.354Z,4.30
2022-11-07T09:00:58.317Z,4.95
2022-11-07T09:06:15.071Z,6.13
2022-11-07T09:08:42.430Z,5.00
2022-11-07T09:11:10.016Z,6.88
2022-11-07T09:13:37.675Z,6.18
2022-11-07T09:16:07.830Z,6.65
2022-11-07T09:18:35.152Z,4.50
2022-11-07T09:21:02.870Z,5.50
2022-11-07T09:23:30.979Z,6.57
2022-11-07T09:26:01.540Z,6.05
2022-11-07T09:28:29.953Z,4.60
2022-11-07T09:30:59.002Z,4.22
2022-11-07T09:33:26.948Z,4.22
2022-11-07T09:35:58.792Z,3.70
2022-11-07T09:38:26.404Z,4.07
2022-11-07T09:41:05.845Z,4.18
2022-11-07T09:44:11.418Z,5.00
2022-11-07T09:46:50.852Z,3.22
2022-11-07T09:49:40.996Z,3.63
2022-11-07T09:52:17.949Z,5.78
2022-11-07T09:54:51.669Z,3.40
2022-11-07T09:57:20.122Z,3.78
2022-11-07T09:59:56.045Z,4.75
2022-11-07T10:02:32.278Z,4.75
2022-11-07T10:05:03.263Z,4.22
2022-11-07T10:08:04.323Z,3.65
2022-11-07T10:10:52.559Z,4.07
2022-11-07T10:13:22.904Z,5.00
2022-11-07T10:16:09.033Z,4.65
2022-11-07T10:18:57.822Z,4.80
2022-11-07T10:21:49.609Z,3.60
2022-11-07T10:24:38.712Z,3.17
2022-11-07T10:27:10.649Z,4.13
2022-11-07T10:29:44.798Z,5.15
2022-11-07T10:32:22.287Z,4.88
2022-11-07T10:34:57.048Z,3.78
2022-11-07T10:37:24.946Z,5.22
2022-11-07T10:39:52.560Z,4.65
2022-11-07T10:42:31.334Z,5.38
2022-11-07T10:44:59.825Z,4.50
2022-11-07T10:47:30.284Z,4.22
2022-11-07T10:50:00.359Z,5.35
2022-11-07T10:52:29.308Z,4.35
2022-11-07T10:55:08.567Z,5.32
2022-11-07T10:57:36.443Z,4.80
2022-11-07T11:00:08.017Z,5.63
2022-11-07T11:02:48.154Z,5.40
2022-11-07T11:05:42.186Z,5.65
2022-11-07T11:08:22.111Z,5.45
2022-11-07T11:10:51.202Z,5.68
2022-11-07T11:13:36.040Z,6.57
2022-11-07T11:16:31.304Z,4.97
2022-11-07T11:19:01.297Z,5.93
2022-11-07T11:21:43.614Z,5.57
2022-11-07T11:24:30.664Z,5.00
2022-11-07T11:27:03.681Z,4.43
2022-11-07T11:29:49.822Z,5.30
2022-11-07T11:32:35.448Z,5.87
2022-11-07T11:35:23.102Z,4.78
2022-11-07T11:38:04.832Z,5.07
2022-11-07T11:40:37.936Z,4.40
2022-11-07T11:43:30.080Z,3.60
2022-11-07T11:46:19.446Z,4.95
2022-11-07T11:49:05.671Z,4.93
2022-11-07T11:51:54.362Z,5.07
2022-11-07T11:54:22.252Z,5.40
2022-11-07T11:57:27.683Z,5.63
2022-11-07T12:00:23.265Z,6.70
2022-11-07T12:03:30.818Z,6.55
2022-11-07T12:06:11.751Z,6.05
2022-11-07T12:09:00.265Z,5.70
2022-11-07T12:11:32.876Z,5.25
2022-11-07T12:14:29.027Z,5.45
2022-11-07T12:17:05.043Z,3.78
2022-11-07T12:20:08.251Z,4.55
2022-11-07T12:23:12.370Z,4.28
2022-11-07T12:26:14.950Z,5.28
2022-11-07T12:29:14.012Z,4.35
2022-11-07T12:32:11.688Z,4.40
2022-11-07T12:34:53.828Z,3.08
2022-11-07T12:37:48.432Z,4.90
2022-11-07T12:40:36.784Z,3.47
2022-11-07T12:43:03.979Z,4.53
2022-11-07T12:45:58.981Z,4.60
2022-11-07T12:48:32.259Z,4.18
2022-11-07T12:51:27.995Z,5.03
2022-11-07T12:54:40.145Z,5.30
2022-11-07T12:57:18.903Z,6.20
2022-11-07T13:00:02.630Z,6.60
2022-11-07T13:02:45.330Z,5.47
2022-11-07T13:05:37.892Z,5.60
2022-11-07T13:08:16.133Z,6.93
2022-11-07T13:10:49.354Z,7.13
2022-11-07T13:13:43.617Z,7.38
2022-11-07T13:16:28.621Z,6.78
2022-11-07T13:19:07.922Z,6.50
2022-11-07T13:21:43.293Z,6.07
2022-11-07T13:24:22.282Z,6.38
2022-11-07T13:26:49.567Z,5.88
2022-11-07T13:29:38.091Z,6.43
2022-11-07T13:32:13.603Z,7.45
2022-11-07T13:34:59.362Z,6.28
2022-11-07T13:37:31.164Z,6.75
2022-11-07T13:40:15.073Z,6.75
2022-11-07T13:42:43.730Z,7.22
2022-11-07T13:45:41.015Z,6.63
2022-11-07T13:48:19.789Z,6.70
2022-11-07T13:51:00.239Z,6.80
2022-11-07T13:53:34.277Z,6.80
2022-11-07T13:56:14.562Z,9.25
2022-11-07T13:58:43.902Z,9.32
2022-11-07T14:01:13.338Z,50.25
2022-11-07T14:03:40.714Z,63.10
2022-11-07T14:06:12.289Z,90.60
2022-11-07T14:08:41.639Z,55.67
2022-11-07T14:11:21.052Z,53.63
2022-11-07T14:13:52.202Z,61.28
2022-11-07T14:16:25.690Z,48.70
2022-11-07T14:19:12.934Z,66.57
2022-11-07T14:21:43.713Z,45.67
2022-11-07T14:24:33.931Z,14.43
2022-11-07T14:27:08.841Z,8.07
2022-11-07T14:29:37.572Z,7.82
2022-11-07T14:32:07.968Z,6.65
2022-11-07T14:34:36.471Z,6.93
2022-11-07T14:37:07.782Z,7.50
2022-11-07T14:39:35.061Z,6.93
2022-11-07T14:42:03.487Z,6.93
2022-11-07T14:44:58.521Z,8.65
2022-11-07T14:47:29.195Z,8.38
2022-11-07T14:49:57.138Z,8.98
2022-11-07T14:52:29.384Z,7.35
2022-11-07T14:55:04.361Z,8.40
2022-11-07T14:57:35.716Z,8.77
2022-11-07T15:00:17.920Z,7.70
2022-11-07T15:02:48.167Z,8.90
2022-11-07T15:05:30.737Z,7.78
2022-11-07T15:07:59.493Z,7.43
2022-11-07T15:10:37.007Z,7.30
2022-11-07T15:13:18.535Z,6.97
2022-11-07T15:15:47.510Z,7.55
2022-11-07T15:18:26.804Z,8.15
2022-11-07T15:20:59.758Z,8.80
2022-11-07T15:23:28.644Z,7.20
2022-11-07T15:26:00.861Z,7.10
2022-11-07T15:28:43.515Z,7.88
2022-11-07T15:31:30.543Z,6.57
2022-11-07T15:34:00.454Z,8.98
2022-11-07T15:36:27.812Z,8.10
2022-11-07T15:38:56.320Z,8.57
2022-11-07T15:41:23.710Z,8.02
2022-11-07T15:43:51.020Z,7.20
2022-11-07T15:46:27.544Z,7.13
2022-11-07T15:51:22.738Z,6.20
2022-11-07T15:53:50.188Z,6.55
2022-11-07T15:56:20.263Z,7.55
2022-11-07T15:58:48.102Z,7.18
2022-11-07T16:01:15.497Z,7.68
2022-11-07T16:03:43.074Z,7.03
2022-11-07T16:06:33.374Z,6.20
2022-11-07T16:09:00.754Z,7.43
2022-11-07T16:11:28.043Z,9.20
2022-11-07T16:14:14.741Z,7.65
2022-11-07T16:16:44.435Z,6.93
2022-11-07T16:19:17.533Z,7.43
2022-11-07T16:21:44.830Z,6.80
2022-11-07T16:24:12.267Z,5.57
2022-11-07T16:26:40.257Z,5.07
2022-11-07T16:29:11.263Z,5.05
2022-11-07T16:31:38.586Z,3.97
2022-11-07T16:34:06.169Z,3.65
2022-11-07T16:36:35.545Z,5.28
2022-11-07T16:39:05.642Z,5.13
2022-11-07T16:41:33.376Z,5.32
2022-11-07T16:44:01.142Z,4.57
2022-11-07T16:46:34.188Z,5.07
2022-11-07T16:49:12.958Z,4.25
2022-11-07T16:51:43.980Z,5.72
2022-11-07T16:54:11.994Z,4.75
2022-11-07T16:56:40.724Z,5.47
2022-11-07T16:59:08.374Z,4.65
2022-11-07T17:01:36.536Z,5.20
2022-11-07T17:04:03.998Z,5.80
2022-11-07T17:06:34.012Z,4.80
2022-11-07T17:09:12.153Z,5.05
2022-11-07T17:11:40.788Z,5.47
2022-11-07T17:14:08.188Z,3.65
2022-11-07T17:16:37.012Z,4.55
2022-11-07T17:19:06.008Z,5.15
2022-11-07T17:21:49.437Z,4.22
2022-11-07T17:24:16.881Z,4.75
2022-11-07T17:26:44.174Z,4.90
2022-11-07T17:29:13.705Z,4.55
2022-11-07T17:31:42.090Z,6.15
2022-11-07T17:34:09.650Z,4.45
2022-11-07T17:36:46.223Z,5.13
2022-11-07T17:39:16.694Z,5.57
2022-11-07T17:41:45.053Z,7.55
2022-11-07T17:44:12.809Z,5.93
2022-11-07T17:46:45.520Z,5.60
2022-11-07T17:49:18.654Z,5.88
2022-11-07T17:51:46.107Z,5.63
2022-11-07T17:54:14.875Z,4.68
2022-11-07T17:56:42.952Z,6.75
2022-11-07T17:59:16.267Z,5.95
2022-11-07T18:01:44.293Z,6.75
2022-11-07T18:04:13.851Z,6.50
2022-11-07T18:06:43.235Z,6.25
2022-11-07T18:09:16.490Z,7.78
2022-11-07T18:11:44.813Z,6.15
2022-11-07T18:14:13.563Z,7.85
2022-11-07T18:16:40.892Z,6.97
2022-11-07T18:19:09.386Z,5.65
2022-11-07T18:21:36.680Z,7.45
2022-11-07T18:24:04.090Z,6.40
2022-11-07T18:26:31.997Z,6.95
2022-11-07T18:29:05.181Z,6.70
2022-11-07T18:31:32.828Z,7.43
2022-11-07T18:34:02.076Z,4.85
2022-11-07T18:36:31.451Z,6.50
2022-11-07T18:39:04.196Z,5.97
2022-11-07T18:41:31.578Z,5.38
2022-11-07T18:44:04.221Z,7.68
2022-11-07T18:46:32.818Z,6.82
2022-11-07T18:49:00.512Z,7.15
2022-11-07T18:51:27.837Z,7.70
2022-11-07T18:53:55.636Z,6.43
2022-11-07T18:56:22.949Z,5.13
2022-11-07T18:58:50.505Z,7.53
2022-11-07T19:01:20.660Z,6.88
2022-11-07T19:03:48.752Z,7.15
2022-11-07T19:06:20.048Z,7.82
2022-11-07T19:08:48.656Z,7.78
2022-11-07T19:11:19.635Z,6.05
2022-11-07T19:13:47.724Z,6.75
2022-11-07T19:16:17.326Z,7.57
2022-11-07T19:18:49.495Z,7.32
2022-11-07T19:21:21.866Z,7.28
2022-11-07T19:23:50.514Z,7.00
2022-11-07T19:26:19.334Z,7.10
2022-11-07T19:28:47.355Z,6.10
2022-11-07T19:31:15.107Z,7.05
2022-11-07T19:33:43.586Z,5.32
2022-11-07T19:36:19.870Z,6.32
2022-11-07T19:38:48.086Z,6.38
2022-11-07T19:41:17.696Z,5.68
2022-11-07T19:43:48.499Z,6.32
2022-11-07T19:46:20.055Z,6.40
2022-11-07T19:48:49.013Z,6.03
2022-11-07T19:51:22.001Z,6.07
2022-11-07T19:53:58.993Z,6.20
2022-11-07T19:56:29.282Z,6.35
2022-11-07T19:58:57.392Z,6.85
2022-11-07T20:01:27.886Z,5.47
2022-11-07T20:03:56.070Z,6.18
2022-11-07T20:06:38.166Z,5.82
2022-11-07T20:09:07.813Z,6.25
2022-11-07T20:11:35.206Z,5.65
2022-11-07T20:14:03.903Z,7.22
2022-11-07T20:16:32.990Z,6.72
2022-11-07T20:19:01.062Z,5.60
2022-11-07T20:21:29.157Z,7.28
2022-11-07T20:23:59.555Z,5.20
2022-11-07T20:26:29.464Z,7.47
2022-11-07T20:28:56.902Z,6.88
2022-11-07T20:31:26.969Z,5.95
2022-11-07T20:33:56.993Z,7.93
2022-11-07T20:36:24.563Z,5.78
2022-11-07T20:38:54.892Z,5.95
2022-11-07T20:41:23.716Z,5.55
2022-11-07T20:43:55.921Z,6.97
2022-11-07T20:46:23.767Z,5.28
2022-11-07T20:48:51.231Z,5.38
2022-11-07T20:51:20.643Z,5.63
2022-11-07T20:53:50.391Z,5.10
2022-11-07T20:56:20.491Z,5.22
2022-11-07T20:58:48.826Z,6.65
2022-11-07T21:01:19.406Z,5.35
2022-11-07T21:03:48.475Z,5.90
2022-11-07T21:06:16.393Z,5.40
2022-11-07T21:08:46.502Z,4.80
2022-11-07T21:11:14.957Z,5.50
2022-11-07T21:13:51.134Z,4.68
2022-11-07T21:16:21.848Z,5.97
2022-11-07T21:18:50.175Z,5.25
2022-11-07T21:21:21.690Z,6.15
2022-11-07T21:23:50.637Z,4.85
2022-11-07T21:26:21.961Z,5.53
2022-11-07T21:28:49.339Z,5.03
2022-11-07T21:31:23.746Z,4.70
2022-11-07T21:33:51.848Z,5.82
2022-11-07T21:36:23.077Z,5.38
2022-11-07T21:38:51.010Z,6.32
2022-11-07T21:41:18.659Z,4.65
2022-11-07T21:43:46.816Z,5.38
2022-11-07T21:46:21.483Z,5.05
2022-11-07T21:48:50.561Z,5.38
2022-11-07T21:51:21.088Z,4.90
2022-11-07T21:53:49.129Z,4.88
2022-11-07T21:56:24.985Z,5.13
2022-11-07T21:59:08.474Z,4.50
2022-11-07T22:01:37.378Z,5.13
2022-11-07T22:04:09.405Z,5.57
2022-11-07T22:06:39.707Z,5.35
2022-11-07T22:09:08.807Z,7.63
2022-11-07T22:11:37.319Z,4.95
2022-11-07T22:14:05.176Z,5.70
2022-11-07T22:16:33.174Z,4.50
2022-11-07T22:19:00.900Z,3.67
2022-11-07T22:21:28.238Z,5.78
2022-11-07T22:23:58.204Z,4.03
2022-11-07T22:26:27.324Z,4.35
2022-11-07T22:28:55.210Z,4.43
2022-11-07T22:31:25.370Z,4.90
2022-11-07T22:33:54.364Z,5.10
2022-11-07T22:36:22.627Z,6.13
2022-11-07T22:38:50.758Z,4.85
2022-11-07T22:41:23.526Z,5.45
2022-11-07T22:43:51.621Z,4.93
2022-11-07T22:46:23.799Z,4.95
2022-11-07T22:48:52.586Z,5.65
2022-11-07T22:51:28.528Z,4.50
2022-11-07T22:54:06.833Z,4.60
2022-11-07T22:56:36.166Z,4.68
2022-11-07T22:59:05.659Z,4.95
2022-11-07T23:01:35.564Z,5.25
2022-11-07T23:04:03.724Z,5.57
2022-11-07T23:06:31.033Z,4.65
2022-11-07T23:08:59.243Z,4.25
2022-11-07T23:11:45.776Z,4.47
2022-11-07T23:14:15.778Z,4.63
2022-11-07T23:16:45.924Z,4.80
2022-11-07T23:19:15.618Z,3.95
2022-11-07T23:21:43.474Z,3.83
2022-11-07T23:24:11.089Z,3.58
2022-11-07T23:26:38.910Z,4.10
2022-11-07T23:29:18.962Z,4.65
2022-11-07T23:31:48.260Z,5.25
2022-11-07T23:34:15.917Z,4.20
2022-11-07T23:36:44.803Z,3.80
2022-11-07T23:39:18.206Z,3.47
2022-11-07T23:41:46.453Z,4.22
2022-11-07T23:44:14.708Z,3.55
2022-11-07T23:47:01.641Z,3.50
2022-11-07T23:52:14.967Z,5.43
2022-11-07T23:55:01.231Z,4.20
2022-11-07T23:57:28.497Z,4.38
